sensor_id;sensor_type;location;lat;lon;timestamp;temperature;humidity
51719;DHT22;37795;53.236;5.704;2024-03-23T00:53:36;14.00;72.90
51719;DHT22;37795;53.236;5.704;2024-03-23T00:56:02;14.00;72.90
51719;DHT22;37795;53.236;5.704;2024-03-23T00:58:28;14.00;73.00
51719;DHT22;37795;53.236;5.704;2024-03-23T01:00:54;14.00;73.00
51719;DHT22;37795;53.236;5.704;2024-03-23T01:03:19;13.90;73.00
51719;DHT22;37795;53.236;5.704;2024-03-23T01:05:45;13.90;73.00
51719;DHT22;37795;53.236;5.704;2024-03-23T01:08:10;13.90;73.00
51719;DHT22;37795;53.236;5.704;2024-03-23T01:10:36;13.90;73.00
51719;DHT22;37795;53.236;5.704;2024-03-23T01:13:01;13.90;73.00
51719;DHT22;37795;53.236;5.704;2024-03-23T01:15:27;13.90;73.00
51719;DHT22;37795;53.236;5.704;2024-03-23T01:17:53;13.80;72.90
51719;DHT22;37795;53.236;5.704;2024-03-23T01:20:18;13.80;73.00
51719;DHT22;37795;53.236;5.704;2024-03-23T01:22:44;13.80;73.00
51719;DHT22;37795;53.236;5.704;2024-03-23T01:25:09;13.80;73.00
51719;DHT22;37795;53.236;5.704;2024-03-23T01:27:35;13.80;73.00
51719;DHT22;37795;53.236;5.704;2024-03-23T01:30:01;13.80;73.00
51719;DHT22;37795;53.236;5.704;2024-03-23T01:32:26;13.80;73.00
51719;DHT22;37795;53.236;5.704;2024-03-23T01:34:52;13.80;73.00
51719;DHT22;37795;53.236;5.704;2024-03-23T01:37:17;13.70;73.00
51719;DHT22;37795;53.236;5.704;2024-03-23T01:39:43;13.70;73.00
51719;DHT22;37795;53.236;5.704;2024-03-23T01:42:08;13.70;73.00
51719;DHT22;37795;53.236;5.704;2024-03-23T01:44:34;13.70;73.00
51719;DHT22;37795;53.236;5.704;2024-03-23T01:47:00;13.70;73.00
51719;DHT22;37795;53.236;5.704;2024-03-23T01:49:25;13.70;73.00
51719;DHT22;37795;53.236;5.704;2024-03-23T01:51:51;13.60;73.00
51719;DHT22;37795;53.236;5.704;2024-03-23T01:54:16;13.60;73.00
51719;DHT22;37795;53.236;5.704;2024-03-23T01:56:42;13.60;73.00
51719;DHT22;37795;53.236;5.704;2024-03-23T01:59:08;13.60;73.00
51719;DHT22;37795;53.236;5.704;2024-03-23T02:01:36;13.60;73.00
51719;DHT22;37795;53.236;5.704;2024-03-23T02:04:02;13.60;73.00
51719;DHT22;37795;53.236;5.704;2024-03-23T02:06:27;13.60;73.00
51719;DHT22;37795;53.236;5.704;2024-03-23T02:08:53;13.50;73.10
51719;DHT22;37795;53.236;5.704;2024-03-23T02:11:19;13.50;73.00
51719;DHT22;37795;53.236;5.704;2024-03-23T02:13:45;13.50;73.00
51719;DHT22;37795;53.236;5.704;2024-03-23T02:16:10;13.50;73.00
51719;DHT22;37795;53.236;5.704;2024-03-23T02:18:36;13.50;73.10
51719;DHT22;37795;53.236;5.704;2024-03-23T02:21:02;13.50;73.10
51719;DHT22;37795;53.236;5.704;2024-03-23T02:23:28;13.50;73.10
51719;DHT22;37795;53.236;5.704;2024-03-23T02:25:53;13.50;73.10
51719;DHT22;37795;53.236;5.704;2024-03-23T02:28:19;13.50;73.10
51719;DHT22;37795;53.236;5.704;2024-03-23T02:30:45;13.40;73.10
51719;DHT22;37795;53.236;5.704;2024-03-23T02:33:10;13.40;73.20
51719;DHT22;37795;53.236;5.704;2024-03-23T02:35:36;13.50;73.20
51719;DHT22;37795;53.236;5.704;2024-03-23T02:38:01;13.40;73.20
51719;DHT22;37795;53.236;5.704;2024-03-23T02:40:27;13.50;73.30
51719;DHT22;37795;53.236;5.704;2024-03-23T02:42:53;13.50;73.30
51719;DHT22;37795;53.236;5.704;2024-03-23T02:45:19;13.50;73.30
51719;DHT22;37795;53.236;5.704;2024-03-23T02:47:44;13.50;73.40
51719;DHT22;37795;53.236;5.704;2024-03-23T02:50:10;13.50;73.30
51719;DHT22;37795;53.236;5.704;2024-03-23T02:52:36;13.50;73.40
51719;DHT22;37795;53.236;5.704;2024-03-23T02:55:02;13.50;73.30
51719;DHT22;37795;53.236;5.704;2024-03-23T02:57:28;13.50;73.30
51719;DHT22;37795;53.236;5.704;2024-03-23T02:59:53;13.50;73.30
51719;DHT22;37795;53.236;5.704;2024-03-23T03:02:19;13.50;73.20
51719;DHT22;37795;53.236;5.704;2024-03-23T03:04:45;13.50;73.10
51719;DHT22;37795;53.236;5.704;2024-03-23T03:07:11;13.50;73.10
51719;DHT22;37795;53.236;5.704;2024-03-23T03:09:36;13.50;73.10
51719;DHT22;37795;53.236;5.704;2024-03-23T03:12:04;13.50;73.00
51719;DHT22;37795;53.236;5.704;2024-03-23T03:14:30;13.50;73.00
51719;DHT22;37795;53.236;5.704;2024-03-23T03:16:56;13.50;73.00
51719;DHT22;37795;53.236;5.704;2024-03-23T03:19:21;13.50;72.90
51719;DHT22;37795;53.236;5.704;2024-03-23T03:21:47;13.40;72.90
51719;DHT22;37795;53.236;5.704;2024-03-23T03:24:16;13.40;72.90
51719;DHT22;37795;53.236;5.704;2024-03-23T03:26:42;13.40;72.90
51719;DHT22;37795;53.236;5.704;2024-03-23T03:29:07;13.40;72.90
51719;DHT22;37795;53.236;5.704;2024-03-23T03:31:33;13.40;72.90
51719;DHT22;37795;53.236;5.704;2024-03-23T03:33:58;13.40;72.90
51719;DHT22;37795;53.236;5.704;2024-03-23T03:36:24;13.40;72.90
51719;DHT22;37795;53.236;5.704;2024-03-23T03:38:50;13.30;72.90
51719;DHT22;37795;53.236;5.704;2024-03-23T03:41:15;13.30;72.90
51719;DHT22;37795;53.236;5.704;2024-03-23T03:43:41;13.30;72.90
51719;DHT22;37795;53.236;5.704;2024-03-23T03:46:06;13.30;73.00
51719;DHT22;37795;53.236;5.704;2024-03-23T03:48:33;13.30;73.00
51719;DHT22;37795;53.236;5.704;2024-03-23T03:50:59;13.30;73.00
51719;DHT22;37795;53.236;5.704;2024-03-23T03:53:25;13.30;73.00
51719;DHT22;37795;53.236;5.704;2024-03-23T03:55:50;13.30;73.10
51719;DHT22;37795;53.236;5.704;2024-03-23T03:58:16;13.30;73.00
51719;DHT22;37795;53.236;5.704;2024-03-23T04:00:41;13.20;73.00
51719;DHT22;37795;53.236;5.704;2024-03-23T04:03:07;13.20;73.10
51719;DHT22;37795;53.236;5.704;2024-03-23T04:05:32;13.20;73.10
51719;DHT22;37795;53.236;5.704;2024-03-23T04:07:58;13.20;73.10
51719;DHT22;37795;53.236;5.704;2024-03-23T04:10:24;13.20;73.10
51719;DHT22;37795;53.236;5.704;2024-03-23T04:12:50;13.20;73.10
51719;DHT22;37795;53.236;5.704;2024-03-23T04:15:16;13.20;73.10
51719;DHT22;37795;53.236;5.704;2024-03-23T04:17:41;13.20;73.10
51719;DHT22;37795;53.236;5.704;2024-03-23T04:20:08;13.10;73.20
51719;DHT22;37795;53.236;5.704;2024-03-23T04:22:34;13.10;73.10
51719;DHT22;37795;53.236;5.704;2024-03-23T04:25:00;13.10;73.20
51719;DHT22;37795;53.236;5.704;2024-03-23T04:27:35;13.10;73.20
51719;DHT22;37795;53.236;5.704;2024-03-23T04:30:00;13.10;73.20
51719;DHT22;37795;53.236;5.704;2024-03-23T04:32:27;13.10;73.30
51719;DHT22;37795;53.236;5.704;2024-03-23T04:34:53;13.10;73.30
51719;DHT22;37795;53.236;5.704;2024-03-23T04:37:19;13.00;73.30
51719;DHT22;37795;53.236;5.704;2024-03-23T04:39:45;13.00;73.30
51719;DHT22;37795;53.236;5.704;2024-03-23T04:42:10;13.00;73.40
51719;DHT22;37795;53.236;5.704;2024-03-23T04:44:37;13.00;73.40
51719;DHT22;37795;53.236;5.704;2024-03-23T04:47:03;13.00;73.40
51719;DHT22;37795;53.236;5.704;2024-03-23T04:49:28;13.00;73.40
51719;DHT22;37795;53.236;5.704;2024-03-23T04:51:54;13.00;73.40
51719;DHT22;37795;53.236;5.704;2024-03-23T04:54:20;13.00;73.50
51719;DHT22;37795;53.236;5.704;2024-03-23T04:56:45;13.00;73.50
51719;DHT22;37795;53.236;5.704;2024-03-23T04:59:11;12.90;73.50
51719;DHT22;37795;53.236;5.704;2024-03-23T05:01:37;12.90;73.50
51719;DHT22;37795;53.236;5.704;2024-03-23T05:04:04;12.90;73.60
51719;DHT22;37795;53.236;5.704;2024-03-23T05:06:30;12.90;73.60
51719;DHT22;37795;53.236;5.704;2024-03-23T05:08:56;12.90;73.60
51719;DHT22;37795;53.236;5.704;2024-03-23T05:11:22;12.90;73.60
51719;DHT22;37795;53.236;5.704;2024-03-23T05:13:47;12.90;73.60
51719;DHT22;37795;53.236;5.704;2024-03-23T05:16:13;12.90;73.60
51719;DHT22;37795;53.236;5.704;2024-03-23T05:18:38;12.90;73.60
51719;DHT22;37795;53.236;5.704;2024-03-23T05:21:04;12.80;73.60
51719;DHT22;37795;53.236;5.704;2024-03-23T05:23:29;12.90;73.60
51719;DHT22;37795;53.236;5.704;2024-03-23T05:25:55;12.80;73.60
51719;DHT22;37795;53.236;5.704;2024-03-23T05:28:21;12.80;73.70
51719;DHT22;37795;53.236;5.704;2024-03-23T05:30:50;12.80;73.70
51719;DHT22;37795;53.236;5.704;2024-03-23T05:33:16;12.80;73.70
51719;DHT22;37795;53.236;5.704;2024-03-23T05:35:42;12.80;73.70
51719;DHT22;37795;53.236;5.704;2024-03-23T05:38:07;12.80;73.70
51719;DHT22;37795;53.236;5.704;2024-03-23T05:40:33;12.80;73.70
51719;DHT22;37795;53.236;5.704;2024-03-23T05:43:02;12.80;73.70
51719;DHT22;37795;53.236;5.704;2024-03-23T05:45:29;12.70;73.70
51719;DHT22;37795;53.236;5.704;2024-03-23T05:47:54;12.70;73.70
51719;DHT22;37795;53.236;5.704;2024-03-23T05:50:22;12.70;73.70
51719;DHT22;37795;53.236;5.704;2024-03-23T05:52:48;12.70;73.70
51719;DHT22;37795;53.236;5.704;2024-03-23T05:55:14;12.70;73.70
51719;DHT22;37795;53.236;5.704;2024-03-23T05:57:39;12.70;73.70
51719;DHT22;37795;53.236;5.704;2024-03-23T06:00:06;12.70;73.70
51719;DHT22;37795;53.236;5.704;2024-03-23T06:02:35;12.70;73.70
51719;DHT22;37795;53.236;5.704;2024-03-23T06:05:01;12.70;73.70
51719;DHT22;37795;53.236;5.704;2024-03-23T06:07:27;12.70;73.70
51719;DHT22;37795;53.236;5.704;2024-03-23T06:09:53;12.70;73.80
51719;DHT22;37795;53.236;5.704;2024-03-23T06:12:18;12.70;73.80
51719;DHT22;37795;53.236;5.704;2024-03-23T06:14:44;12.80;73.80
51719;DHT22;37795;53.236;5.704;2024-03-23T06:17:09;12.80;73.80
51719;DHT22;37795;53.236;5.704;2024-03-23T06:19:35;12.80;73.80
51719;DHT22;37795;53.236;5.704;2024-03-23T06:22:00;12.80;73.80
51719;DHT22;37795;53.236;5.704;2024-03-23T06:24:26;12.80;73.80
51719;DHT22;37795;53.236;5.704;2024-03-23T06:26:51;12.90;73.80
51719;DHT22;37795;53.236;5.704;2024-03-23T06:29:17;12.90;73.70
51719;DHT22;37795;53.236;5.704;2024-03-23T06:31:42;12.90;73.70
51719;DHT22;37795;53.236;5.704;2024-03-23T06:34:08;12.90;73.60
51719;DHT22;37795;53.236;5.704;2024-03-23T06:36:34;13.00;73.50
51719;DHT22;37795;53.236;5.704;2024-03-23T06:38:59;13.00;73.50
51719;DHT22;37795;53.236;5.704;2024-03-23T06:41:25;13.00;73.50
51719;DHT22;37795;53.236;5.704;2024-03-23T06:50:57;13.10;73.30
51719;DHT22;37795;53.236;5.704;2024-03-23T06:53:23;13.00;73.10
51719;DHT22;37795;53.236;5.704;2024-03-23T06:55:53;13.10;73.00
51719;DHT22;37795;53.236;5.704;2024-03-23T06:58:20;13.20;73.00
51719;DHT22;37795;53.236;5.704;2024-03-23T07:00:46;13.20;72.90
51719;DHT22;37795;53.236;5.704;2024-03-23T07:03:11;13.30;72.80
51719;DHT22;37795;53.236;5.704;2024-03-23T07:05:37;13.30;72.70
51719;DHT22;37795;53.236;5.704;2024-03-23T07:08:03;13.40;72.60
51719;DHT22;37795;53.236;5.704;2024-03-23T07:10:29;13.40;72.50
51719;DHT22;37795;53.236;5.704;2024-03-23T07:12:55;13.40;72.40
51719;DHT22;37795;53.236;5.704;2024-03-23T07:15:20;13.50;72.30
51719;DHT22;37795;53.236;5.704;2024-03-23T07:17:47;13.50;72.20
51719;DHT22;37795;53.236;5.704;2024-03-23T07:20:13;13.50;72.10
51719;DHT22;37795;53.236;5.704;2024-03-23T07:22:39;13.50;72.00
51719;DHT22;37795;53.236;5.704;2024-03-23T07:25:05;13.60;71.90
51719;DHT22;37795;53.236;5.704;2024-03-23T07:27:32;13.60;71.90
51719;DHT22;37795;53.236;5.704;2024-03-23T07:29:57;13.70;72.00
51719;DHT22;37795;53.236;5.704;2024-03-23T07:32:23;13.70;72.00
51719;DHT22;37795;53.236;5.704;2024-03-23T07:34:49;13.80;72.00
51719;DHT22;37795;53.236;5.704;2024-03-23T07:37:14;14.00;72.10
51719;DHT22;37795;53.236;5.704;2024-03-23T07:39:41;14.00;72.00
51719;DHT22;37795;53.236;5.704;2024-03-23T07:42:06;14.20;71.90
51719;DHT22;37795;53.236;5.704;2024-03-23T07:44:32;14.30;71.80
51719;DHT22;37795;53.236;5.704;2024-03-23T07:47:00;14.40;71.60
51719;DHT22;37795;53.236;5.704;2024-03-23T07:49:25;14.50;71.50
51719;DHT22;37795;53.236;5.704;2024-03-23T07:51:51;14.60;71.30
51719;DHT22;37795;53.236;5.704;2024-03-23T07:54:17;14.70;71.10
51719;DHT22;37795;53.236;5.704;2024-03-23T07:56:42;14.80;71.00
51719;DHT22;37795;53.236;5.704;2024-03-23T07:59:08;14.80;70.90
51719;DHT22;37795;53.236;5.704;2024-03-23T08:01:34;14.90;70.70
51719;DHT22;37795;53.236;5.704;2024-03-23T08:03:59;15.00;70.70
51719;DHT22;37795;53.236;5.704;2024-03-23T08:06:25;15.10;70.60
51719;DHT22;37795;53.236;5.704;2024-03-23T08:08:54;15.30;70.50
51719;DHT22;37795;53.236;5.704;2024-03-23T08:11:32;15.40;70.30
51719;DHT22;37795;53.236;5.704;2024-03-23T08:14:01;15.50;70.00
51719;DHT22;37795;53.236;5.704;2024-03-23T08:16:27;15.40;69.70
51719;DHT22;37795;53.236;5.704;2024-03-23T08:18:53;15.40;69.50
51719;DHT22;37795;53.236;5.704;2024-03-23T08:21:21;15.40;69.40
51719;DHT22;37795;53.236;5.704;2024-03-23T08:23:46;15.40;69.50
51719;DHT22;37795;53.236;5.704;2024-03-23T08:26:15;15.30;69.40
51719;DHT22;37795;53.236;5.704;2024-03-23T08:28:40;15.30;69.50
51719;DHT22;37795;53.236;5.704;2024-03-23T08:31:13;15.30;69.50
51719;DHT22;37795;53.236;5.704;2024-03-23T08:33:40;15.30;69.60
51719;DHT22;37795;53.236;5.704;2024-03-23T08:36:09;15.30;69.70
51719;DHT22;37795;53.236;5.704;2024-03-23T08:38:37;15.30;69.70
51719;DHT22;37795;53.236;5.704;2024-03-23T08:41:08;15.30;69.70
51719;DHT22;37795;53.236;5.704;2024-03-23T08:43:41;15.20;69.70
51719;DHT22;37795;53.236;5.704;2024-03-23T08:46:11;15.20;69.70
51719;DHT22;37795;53.236;5.704;2024-03-23T08:48:44;15.20;69.70
51719;DHT22;37795;53.236;5.704;2024-03-23T08:51:12;15.20;69.80
51719;DHT22;37795;53.236;5.704;2024-03-23T08:53:38;15.20;69.80
51719;DHT22;37795;53.236;5.704;2024-03-23T08:56:05;15.20;69.70
51719;DHT22;37795;53.236;5.704;2024-03-23T08:58:35;15.10;69.80
51719;DHT22;37795;53.236;5.704;2024-03-23T09:01:08;15.10;69.80
51719;DHT22;37795;53.236;5.704;2024-03-23T09:03:35;15.10;69.70
51719;DHT22;37795;53.236;5.704;2024-03-23T09:06:06;15.10;69.70
51719;DHT22;37795;53.236;5.704;2024-03-23T09:08:32;15.10;69.70
51719;DHT22;37795;53.236;5.704;2024-03-23T09:10:57;15.10;69.70
51719;DHT22;37795;53.236;5.704;2024-03-23T09:13:23;15.10;69.50
51719;DHT22;37795;53.236;5.704;2024-03-23T09:15:52;15.10;69.50
51719;DHT22;37795;53.236;5.704;2024-03-23T09:18:22;15.10;69.60
51719;DHT22;37795;53.236;5.704;2024-03-23T09:20:47;15.20;69.70
51719;DHT22;37795;53.236;5.704;2024-03-23T09:23:13;15.30;69.80
51719;DHT22;37795;53.236;5.704;2024-03-23T09:25:39;15.40;69.90
51719;DHT22;37795;53.236;5.704;2024-03-23T09:28:06;15.50;69.60
51719;DHT22;37795;53.236;5.704;2024-03-23T09:30:35;15.40;69.40
51719;DHT22;37795;53.236;5.704;2024-03-23T09:33:00;15.40;69.30
51719;DHT22;37795;53.236;5.704;2024-03-23T09:35:27;15.50;69.20
51719;DHT22;37795;53.236;5.704;2024-03-23T09:37:52;15.50;69.10
51719;DHT22;37795;53.236;5.704;2024-03-23T09:40:18;15.50;68.90
51719;DHT22;37795;53.236;5.704;2024-03-23T09:42:50;15.60;68.90
51719;DHT22;37795;53.236;5.704;2024-03-23T09:45:27;15.70;68.70
51719;DHT22;37795;53.236;5.704;2024-03-23T09:47:53;15.60;68.40
51719;DHT22;37795;53.236;5.704;2024-03-23T09:50:19;15.70;68.40
51719;DHT22;37795;53.236;5.704;2024-03-23T09:52:48;15.80;68.20
51719;DHT22;37795;53.236;5.704;2024-03-23T09:55:14;15.70;68.10
51719;DHT22;37795;53.236;5.704;2024-03-23T09:57:41;15.60;68.10
51719;DHT22;37795;53.236;5.704;2024-03-23T10:00:07;15.60;68.10
51719;DHT22;37795;53.236;5.704;2024-03-23T10:02:34;15.50;68.20
51719;DHT22;37795;53.236;5.704;2024-03-23T10:05:01;15.50;68.30
51719;DHT22;37795;53.236;5.704;2024-03-23T10:07:26;15.50;68.40
51719;DHT22;37795;53.236;5.704;2024-03-23T10:09:55;15.50;68.50
51719;DHT22;37795;53.236;5.704;2024-03-23T10:12:22;15.50;68.60
51719;DHT22;37795;53.236;5.704;2024-03-23T10:14:49;15.60;68.60
51719;DHT22;37795;53.236;5.704;2024-03-23T10:17:22;15.70;68.50
51719;DHT22;37795;53.236;5.704;2024-03-23T10:19:52;15.60;68.30
51719;DHT22;37795;53.236;5.704;2024-03-23T10:22:18;15.60;68.20
51719;DHT22;37795;53.236;5.704;2024-03-23T10:24:45;15.60;68.30
51719;DHT22;37795;53.236;5.704;2024-03-23T10:27:16;15.60;68.50
51719;DHT22;37795;53.236;5.704;2024-03-23T10:29:44;15.70;68.70
51719;DHT22;37795;53.236;5.704;2024-03-23T10:32:11;15.90;68.70
51719;DHT22;37795;53.236;5.704;2024-03-23T10:34:37;15.90;68.60
51719;DHT22;37795;53.236;5.704;2024-03-23T10:37:04;15.90;68.60
51719;DHT22;37795;53.236;5.704;2024-03-23T10:39:32;16.00;68.50
51719;DHT22;37795;53.236;5.704;2024-03-23T10:42:04;16.10;68.60
51719;DHT22;37795;53.236;5.704;2024-03-23T10:50:56;16.30;68.20
51719;DHT22;37795;53.236;5.704;2024-03-23T10:53:26;16.40;68.50
51719;DHT22;37795;53.236;5.704;2024-03-23T10:55:52;16.60;68.40
51719;DHT22;37795;53.236;5.704;2024-03-23T10:58:40;16.60;68.10
51719;DHT22;37795;53.236;5.704;2024-03-23T11:01:06;16.60;67.90
51719;DHT22;37795;53.236;5.704;2024-03-23T11:03:37;16.60;67.90
51719;DHT22;37795;53.236;5.704;2024-03-23T11:06:05;16.60;67.90
51719;DHT22;37795;53.236;5.704;2024-03-23T11:08:40;16.60;67.80
51719;DHT22;37795;53.236;5.704;2024-03-23T11:13:39;16.50;67.70
51719;DHT22;37795;53.236;5.704;2024-03-23T11:16:17;16.50;67.60
51719;DHT22;37795;53.236;5.704;2024-03-23T11:18:47;16.50;67.50
51719;DHT22;37795;53.236;5.704;2024-03-23T11:24:16;16.40;67.10
51719;DHT22;37795;53.236;5.704;2024-03-23T11:26:42;16.40;67.10
51719;DHT22;37795;53.236;5.704;2024-03-23T11:29:11;16.40;67.10
51719;DHT22;37795;53.236;5.704;2024-03-23T11:31:38;16.30;67.00
51719;DHT22;37795;53.236;5.704;2024-03-23T11:34:06;16.30;67.00
51719;DHT22;37795;53.236;5.704;2024-03-23T11:36:32;16.40;66.90
51719;DHT22;37795;53.236;5.704;2024-03-23T11:38:58;16.40;66.90
51719;DHT22;37795;53.236;5.704;2024-03-23T11:41:25;16.30;66.70
51719;DHT22;37795;53.236;5.704;2024-03-23T11:43:50;16.30;66.70
51719;DHT22;37795;53.236;5.704;2024-03-23T11:46:22;16.40;66.90
51719;DHT22;37795;53.236;5.704;2024-03-23T11:48:51;16.30;67.00
51719;DHT22;37795;53.236;5.704;2024-03-23T11:51:17;16.30;67.00
51719;DHT22;37795;53.236;5.704;2024-03-23T11:53:43;16.30;67.10
51719;DHT22;37795;53.236;5.704;2024-03-23T11:56:08;16.30;67.10
51719;DHT22;37795;53.236;5.704;2024-03-23T11:58:35;16.30;67.20
51719;DHT22;37795;53.236;5.704;2024-03-23T12:01:02;16.30;67.20
51719;DHT22;37795;53.236;5.704;2024-03-23T12:03:29;16.30;67.30
51719;DHT22;37795;53.236;5.704;2024-03-23T12:05:59;16.30;67.30
51719;DHT22;37795;53.236;5.704;2024-03-23T12:08:36;16.30;67.30
51719;DHT22;37795;53.236;5.704;2024-03-23T12:11:17;16.30;67.40
51719;DHT22;37795;53.236;5.704;2024-03-23T12:13:44;16.40;67.40
51719;DHT22;37795;53.236;5.704;2024-03-23T12:16:20;16.30;67.40
51719;DHT22;37795;53.236;5.704;2024-03-23T12:18:48;16.40;67.40
51719;DHT22;37795;53.236;5.704;2024-03-23T12:21:17;16.30;67.40
51719;DHT22;37795;53.236;5.704;2024-03-23T12:23:43;16.30;67.40
51719;DHT22;37795;53.236;5.704;2024-03-23T12:26:11;16.30;67.40
51719;DHT22;37795;53.236;5.704;2024-03-23T12:28:37;16.30;67.40
51719;DHT22;37795;53.236;5.704;2024-03-23T12:31:03;16.30;67.50
51719;DHT22;37795;53.236;5.704;2024-03-23T12:33:29;16.30;67.50
51719;DHT22;37795;53.236;5.704;2024-03-23T12:35:55;16.30;67.50
51719;DHT22;37795;53.236;5.704;2024-03-23T12:38:21;16.20;67.60
51719;DHT22;37795;53.236;5.704;2024-03-23T12:40:47;16.20;67.60
51719;DHT22;37795;53.236;5.704;2024-03-23T12:43:14;16.20;67.60
51719;DHT22;37795;53.236;5.704;2024-03-23T12:45:39;16.20;67.50
51719;DHT22;37795;53.236;5.704;2024-03-23T12:48:05;16.10;67.50
51719;DHT22;37795;53.236;5.704;2024-03-23T12:50:31;16.10;67.60
51719;DHT22;37795;53.236;5.704;2024-03-23T12:52:57;16.10;67.60
51719;DHT22;37795;53.236;5.704;2024-03-23T12:55:23;16.10;67.50
51719;DHT22;37795;53.236;5.704;2024-03-23T12:57:49;16.10;67.60
51719;DHT22;37795;53.236;5.704;2024-03-23T13:00:14;16.10;67.60
51719;DHT22;37795;53.236;5.704;2024-03-23T13:02:42;16.10;67.60
51719;DHT22;37795;53.236;5.704;2024-03-23T13:05:08;16.10;67.60
51719;DHT22;37795;53.236;5.704;2024-03-23T13:07:37;16.10;67.90
51719;DHT22;37795;53.236;5.704;2024-03-23T13:10:04;16.10;68.20
51719;DHT22;37795;53.236;5.704;2024-03-23T13:12:31;16.10;68.30
51719;DHT22;37795;53.236;5.704;2024-03-23T13:14:57;16.10;68.50
51719;DHT22;37795;53.236;5.704;2024-03-23T13:17:22;16.10;68.50
51719;DHT22;37795;53.236;5.704;2024-03-23T13:19:48;16.10;68.40
51719;DHT22;37795;53.236;5.704;2024-03-23T13:22:14;16.00;68.30
51719;DHT22;37795;53.236;5.704;2024-03-23T13:24:39;16.00;68.40
51719;DHT22;37795;53.236;5.704;2024-03-23T13:27:05;16.00;68.40
51719;DHT22;37795;53.236;5.704;2024-03-23T13:29:33;16.00;68.40
51719;DHT22;37795;53.236;5.704;2024-03-23T13:32:06;16.00;68.20
51719;DHT22;37795;53.236;5.704;2024-03-23T13:34:32;16.00;68.20
51719;DHT22;37795;53.236;5.704;2024-03-23T13:36:58;16.00;68.10
51719;DHT22;37795;53.236;5.704;2024-03-23T13:39:25;16.00;68.20
51719;DHT22;37795;53.236;5.704;2024-03-23T13:41:51;16.00;68.20
51719;DHT22;37795;53.236;5.704;2024-03-23T13:44:16;15.90;68.20
51719;DHT22;37795;53.236;5.704;2024-03-23T13:46:43;15.90;68.20
51719;DHT22;37795;53.236;5.704;2024-03-23T13:49:29;15.90;68.20
51719;DHT22;37795;53.236;5.704;2024-03-23T13:51:56;15.90;68.20
51719;DHT22;37795;53.236;5.704;2024-03-23T13:54:24;15.90;68.30
51719;DHT22;37795;53.236;5.704;2024-03-23T13:56:54;15.90;68.30
51719;DHT22;37795;53.236;5.704;2024-03-23T13:59:20;16.00;68.50
51719;DHT22;37795;53.236;5.704;2024-03-23T14:01:48;16.00;68.60
51719;DHT22;37795;53.236;5.704;2024-03-23T14:04:14;16.10;68.70
51719;DHT22;37795;53.236;5.704;2024-03-23T14:06:45;16.20;68.70
51719;DHT22;37795;53.236;5.704;2024-03-23T14:09:12;16.30;68.60
51719;DHT22;37795;53.236;5.704;2024-03-23T14:11:38;16.40;68.50
51719;DHT22;37795;53.236;5.704;2024-03-23T14:14:04;16.60;68.40
51719;DHT22;37795;53.236;5.704;2024-03-23T14:16:30;16.70;68.30
51719;DHT22;37795;53.236;5.704;2024-03-23T14:18:56;16.70;68.10
51719;DHT22;37795;53.236;5.704;2024-03-23T14:21:22;16.70;68.20
51719;DHT22;37795;53.236;5.704;2024-03-23T14:23:48;16.90;68.20
51719;DHT22;37795;53.236;5.704;2024-03-23T14:26:14;17.10;68.00
51719;DHT22;37795;53.236;5.704;2024-03-23T14:28:39;17.20;67.60
51719;DHT22;37795;53.236;5.704;2024-03-23T14:31:05;17.10;67.30
51719;DHT22;37795;53.236;5.704;2024-03-23T14:33:39;17.10;67.40
51719;DHT22;37795;53.236;5.704;2024-03-23T14:36:10;17.10;67.40
51719;DHT22;37795;53.236;5.704;2024-03-23T14:38:36;17.10;67.50
51719;DHT22;37795;53.236;5.704;2024-03-23T14:41:03;17.10;67.60
51719;DHT22;37795;53.236;5.704;2024-03-23T14:43:29;17.10;67.70
51719;DHT22;37795;53.236;5.704;2024-03-23T14:46:08;17.10;67.80
51719;DHT22;37795;53.236;5.704;2024-03-23T14:48:35;17.10;67.80
51719;DHT22;37795;53.236;5.704;2024-03-23T14:51:01;17.10;68.00
51719;DHT22;37795;53.236;5.704;2024-03-23T14:53:27;17.10;68.00
51719;DHT22;37795;53.236;5.704;2024-03-23T14:55:56;17.10;68.00
51719;DHT22;37795;53.236;5.704;2024-03-23T14:58:22;17.10;68.10
51719;DHT22;37795;53.236;5.704;2024-03-23T15:00:51;17.10;68.10
51719;DHT22;37795;53.236;5.704;2024-03-23T15:03:18;17.10;68.20
51719;DHT22;37795;53.236;5.704;2024-03-23T15:05:57;17.20;68.20
51719;DHT22;37795;53.236;5.704;2024-03-23T15:08:23;17.20;68.20
51719;DHT22;37795;53.236;5.704;2024-03-23T15:10:49;17.20;68.20
51719;DHT22;37795;53.236;5.704;2024-03-23T15:13:15;17.20;68.20
51719;DHT22;37795;53.236;5.704;2024-03-23T15:15:42;17.20;68.20
51719;DHT22;37795;53.236;5.704;2024-03-23T15:18:13;17.20;68.20
51719;DHT22;37795;53.236;5.704;2024-03-23T15:21:02;17.20;68.10
51719;DHT22;37795;53.236;5.704;2024-03-23T15:23:33;17.20;68.20
51719;DHT22;37795;53.236;5.704;2024-03-23T15:26:02;17.20;68.20
51719;DHT22;37795;53.236;5.704;2024-03-23T15:28:29;17.30;68.10
51719;DHT22;37795;53.236;5.704;2024-03-23T15:31:18;17.30;68.10
51719;DHT22;37795;53.236;5.704;2024-03-23T15:33:44;17.30;68.10
51719;DHT22;37795;53.236;5.704;2024-03-23T15:36:10;17.20;68.10
51719;DHT22;37795;53.236;5.704;2024-03-23T15:38:35;17.20;68.10
51719;DHT22;37795;53.236;5.704;2024-03-23T15:41:01;17.20;68.00
51719;DHT22;37795;53.236;5.704;2024-03-23T15:43:27;17.20;68.10
51719;DHT22;37795;53.236;5.704;2024-03-23T15:45:57;17.20;68.00
51719;DHT22;37795;53.236;5.704;2024-03-23T15:48:25;17.20;68.00
51719;DHT22;37795;53.236;5.704;2024-03-23T15:51:00;17.20;68.00
51719;DHT22;37795;53.236;5.704;2024-03-23T15:53:26;17.20;68.00
51719;DHT22;37795;53.236;5.704;2024-03-23T15:55:55;17.20;67.90
51719;DHT22;37795;53.236;5.704;2024-03-23T15:58:25;17.20;67.90
51719;DHT22;37795;53.236;5.704;2024-03-23T16:01:05;17.30;67.90
51719;DHT22;37795;53.236;5.704;2024-03-23T16:03:32;17.30;67.80
51719;DHT22;37795;53.236;5.704;2024-03-23T16:06:07;17.20;67.80
51719;DHT22;37795;53.236;5.704;2024-03-23T16:08:34;17.30;67.80
51719;DHT22;37795;53.236;5.704;2024-03-23T16:11:04;17.30;67.80
51719;DHT22;37795;53.236;5.704;2024-03-23T16:13:31;17.30;67.80
51719;DHT22;37795;53.236;5.704;2024-03-23T16:15:58;17.30;67.80
51719;DHT22;37795;53.236;5.704;2024-03-23T16:18:24;17.20;67.70
51719;DHT22;37795;53.236;5.704;2024-03-23T16:20:54;17.30;67.70
51719;DHT22;37795;53.236;5.704;2024-03-23T16:23:20;17.20;67.70
51719;DHT22;37795;53.236;5.704;2024-03-23T16:25:50;17.20;67.70
51719;DHT22;37795;53.236;5.704;2024-03-23T16:28:31;17.20;67.70
51719;DHT22;37795;53.236;5.704;2024-03-23T16:31:02;17.20;67.70
51719;DHT22;37795;53.236;5.704;2024-03-23T16:33:29;17.20;67.70
51719;DHT22;37795;53.236;5.704;2024-03-23T16:36:07;17.10;67.70
51719;DHT22;37795;53.236;5.704;2024-03-23T16:38:38;17.10;67.70
51719;DHT22;37795;53.236;5.704;2024-03-23T16:41:09;17.10;67.70